Time;durP1;ratioP1;P1;durP2;ratioP2;P2;SDS_P1;SDS_P2;PMS_P1;PMS_P2;Temp;Humidity;BMP_temperature;BMP_pressure;BME280_temperature;BME280_humidity;BME280_pressure;Samples;Min_cycle;Max_cycle;Signal;HPM_P1;HPM_P2
2022/06/03 00:00:04;;;;;;;10.00;4.45;;;11.90;99.90;;;;;;5064728;28;20095;-71
2022/06/03 00:02:51;;;;;;;8.40;5.38;;;11.90;99.90;;;;;;5055407;28;20098;-71
2022/06/03 00:05:38;;;;;;;7.63;5.13;;;11.90;99.90;;;;;;5068603;28;20087;-69
2022/06/03 00:08:38;;;;;;;8.35;5.05;;;11.80;99.90;;;;;;5068994;28;20078;-69
2022/06/03 00:11:22;;;;;;;7.80;4.72;;;11.80;99.90;;;;;;5053468;28;20048;-69
2022/06/03 00:14:12;;;;;;;7.80;5.03;;;11.80;99.90;;;;;;5067242;28;20497;-70
2022/06/03 00:17:11;;;;;;;11.73;5.40;;;11.70;99.90;;;;;;5067892;28;20040;-70
2022/06/03 00:19:58;;;;;;;7.03;5.28;;;12.20;99.90;;;;;;5067547;28;20041;-69
2022/06/03 00:22:59;;;;;;;10.02;5.30;;;11.70;99.90;;;;;;5067125;28;20562;-70
2022/06/03 00:26:06;;;;;;;8.80;4.85;;;11.60;99.90;;;;;;5055430;28;20057;-72
2022/06/03 00:28:59;;;;;;;9.50;5.00;;;11.60;99.90;;;;;;5057451;28;20044;-71
2022/06/03 00:31:43;;;;;;;8.43;4.63;;;11.60;99.90;;;;;;5067915;28;20045;-70
2022/06/03 00:34:34;;;;;;;11.40;5.60;;;11.60;99.90;;;;;;5068291;28;20408;-69
2022/06/03 00:37:33;;;;;;;9.88;5.35;;;11.50;99.90;;;;;;5055070;28;20093;-72
2022/06/03 00:40:24;;;;;;;9.50;5.10;;;11.50;99.90;;;;;;5068744;28;20133;-69
2022/06/03 00:43:18;;;;;;;10.85;5.53;;;11.50;99.90;;;;;;5067539;28;20117;-70
2022/06/03 00:45:57;;;;;;;10.75;5.88;;;11.50;99.90;;;;;;5066935;28;20040;-69
2022/06/03 00:48:47;;;;;;;8.68;5.78;;;11.40;99.90;;;;;;5048004;28;20480;-69
2022/06/03 00:51:26;;;;;;;11.98;6.63;;;11.40;99.90;;;;;;5062049;28;20051;-69
2022/06/03 00:54:10;;;;;;;9.57;6.10;;;11.40;99.90;;;;;;5083701;28;20404;-69
2022/06/03 00:56:57;;;;;;;10.70;6.70;;;11.50;99.90;;;;;;5060035;28;20051;-69
2022/06/03 01:00:01;;;;;;;8.50;5.90;;;11.40;99.90;;;;;;5066770;28;20052;-69
2022/06/03 01:02:55;;;;;;;10.70;6.80;;;11.40;99.90;;;;;;5067711;28;20175;-69
2022/06/03 01:05:26;;;;;;;11.43;6.10;;;11.30;99.90;;;;;;5067159;28;20053;-70
2022/06/03 01:08:08;;;;;;;10.32;6.55;;;11.30;99.90;;;;;;5066421;28;20110;-69
2022/06/03 01:11:06;;;;;;;9.80;6.25;;;11.30;99.90;;;;;;5069176;28;20157;-70
2022/06/03 01:14:03;;;;;;;11.18;6.20;;;11.20;99.90;;;;;;5066513;28;20370;-70
2022/06/03 01:16:55;;;;;;;12.00;6.07;;;11.20;99.90;;;;;;5052325;28;20052;-70
2022/06/03 01:19:39;;;;;;;12.05;6.00;;;11.20;99.90;;;;;;5050396;28;20388;-69
2022/06/03 01:22:54;;;;;;;12.82;6.00;;;11.10;99.90;;;;;;5062530;28;20049;-69
2022/06/03 01:25:32;;;;;;;8.60;5.72;;;11.20;99.90;;;;;;5053337;28;20119;-69
2022/06/03 01:28:00;;;;;;;8.63;5.82;;;11.20;99.90;;;;;;5067553;28;20052;-70
2022/06/03 01:30:54;;;;;;;7.85;5.40;;;11.20;99.90;;;;;;5066302;28;20045;-69
2022/06/03 01:33:59;;;;;;;10.93;5.75;;;11.20;99.90;;;;;;5065483;28;20389;-69
2022/06/03 01:36:56;;;;;;;10.55;5.50;;;11.10;99.90;;;;;;5043738;28;20476;-70
2022/06/03 01:40:12;;;;;;;10.27;4.95;;;11.10;99.90;;;;;;5051417;28;20102;-69
2022/06/03 01:43:02;;;;;;;8.52;5.65;;;11.10;99.90;;;;;;5033443;28;20115;-69
2022/06/03 01:45:49;;;;;;;9.20;5.38;;;11.10;99.90;;;;;;5048652;28;20124;-69
2022/06/03 01:48:18;;;;;;;11.05;5.45;;;11.00;99.90;;;;;;5063187;28;20060;-70
2022/06/03 01:51:14;;;;;;;10.05;5.47;;;11.00;99.90;;;;;;5068445;28;20039;-69
2022/06/03 01:54:17;;;;;;;12.10;5.47;;;11.00;99.90;;;;;;5071091;28;20098;-70
2022/06/03 01:57:17;;;;;;;7.53;5.20;;;11.00;99.90;;;;;;5070595;28;20123;-69
2022/06/03 02:00:12;;;;;;;8.55;5.25;;;11.00;99.90;;;;;;5069138;28;20094;-69
2022/06/03 02:02:43;;;;;;;9.93;4.95;;;10.90;99.90;;;;;;5070196;28;20070;-70
2022/06/03 02:05:46;;;;;;;8.93;5.20;;;10.90;99.90;;;;;;5071228;28;20083;-70
2022/06/03 02:08:46;;;;;;;8.25;5.22;;;10.90;99.90;;;;;;5072815;28;20040;-70
2022/06/03 02:11:48;;;;;;;9.75;5.35;;;10.90;99.90;;;;;;5071441;28;20044;-69
2022/06/03 02:14:48;;;;;;;9.98;5.22;;;10.90;99.90;;;;;;5071661;28;20116;-69
2022/06/03 02:17:41;;;;;;;8.68;5.38;;;10.90;99.90;;;;;;5068121;28;20056;-70
2022/06/03 02:20:31;;;;;;;10.20;5.22;;;10.90;99.90;;;;;;5070994;28;20097;-70
2022/06/03 02:23:20;;;;;;;10.20;5.38;;;10.80;99.90;;;;;;5070074;28;20044;-70
2022/06/03 02:26:05;;;;;;;9.38;5.15;;;11.50;99.90;;;;;;5062358;28;20045;-69
2022/06/03 02:32:17;;;;;;;8.18;5.60;;;10.90;99.90;;;;;;5069719;28;20086;-70
2022/06/03 02:35:02;;;;;;;8.50;6.75;;;10.80;99.90;;;;;;5070185;28;20044;-70
2022/06/03 02:38:06;;;;;;;10.75;6.60;;;10.80;99.90;;;;;;5070363;28;20048;-70
2022/06/03 02:40:52;;;;;;;8.45;6.25;;;10.70;99.90;;;;;;5028412;28;20041;-70
2022/06/03 02:43:55;;;;;;;9.38;6.53;;;10.70;99.90;;;;;;5060312;28;20057;-70
2022/06/03 02:46:45;;;;;;;10.43;6.57;;;10.70;99.90;;;;;;5070673;28;20055;-70
2022/06/03 02:49:17;;;;;;;11.13;6.68;;;10.70;99.90;;;;;;5069238;28;20044;-70
2022/06/03 02:52:00;;;;;;;10.50;7.10;;;10.60;99.90;;;;;;5068931;28;20040;-70
2022/06/03 02:54:52;;;;;;;10.15;6.53;;;10.60;99.90;;;;;;5069040;28;20048;-70
2022/06/03 02:57:43;;;;;;;11.48;7.13;;;10.60;99.90;;;;;;5070492;28;20489;-70
2022/06/03 03:00:44;;;;;;;8.95;6.82;;;10.60;99.90;;;;;;5059244;28;20068;-69
2022/06/03 03:03:47;;;;;;;12.23;7.10;;;10.50;99.90;;;;;;5067851;28;20080;-69
2022/06/03 03:06:43;;;;;;;10.88;6.30;;;10.50;99.90;;;;;;5070494;28;20365;-70
2022/06/03 03:09:23;;;;;;;10.55;7.20;;;10.50;99.90;;;;;;5070661;28;20431;-70
2022/06/03 03:11:49;;;;;;;12.73;7.22;;;10.40;99.90;;;;;;5068451;28;20060;-69
2022/06/03 03:14:45;;;;;;;10.98;6.88;;;10.40;99.90;;;;;;5068994;28;20050;-70
2022/06/03 03:17:24;;;;;;;10.15;6.63;;;10.40;99.90;;;;;;5069834;28;20512;-70
2022/06/03 03:20:19;;;;;;;12.07;6.35;;;10.40;99.90;;;;;;5067526;28;20493;-69
2022/06/03 03:23:12;;;;;;;10.20;6.80;;;10.30;99.90;;;;;;5069968;28;20327;-70
2022/06/03 03:25:52;;;;;;;9.93;6.85;;;10.30;99.90;;;;;;5071262;28;20040;-70
2022/06/03 03:28:55;;;;;;;12.60;7.53;;;10.70;99.90;;;;;;5052135;28;20058;-70
2022/06/03 03:31:24;;;;;;;11.23;7.38;;;10.30;99.90;;;;;;5069679;28;20137;-72
2022/06/03 03:34:01;;;;;;;11.70;8.63;;;10.30;99.90;;;;;;5070092;28;20048;-69
2022/06/03 03:37:04;;;;;;;13.63;8.90;;;10.30;99.90;;;;;;5069897;28;20041;-70
2022/06/03 03:39:54;;;;;;;12.50;8.65;;;10.30;99.90;;;;;;5069339;28;20044;-70
2022/06/03 03:42:57;;;;;;;11.25;8.13;;;10.30;99.90;;;;;;5060124;28;20493;-69
2022/06/03 03:45:25;;;;;;;14.65;8.77;;;10.30;99.90;;;;;;5064008;28;20361;-70
2022/06/03 03:48:15;;;;;;;15.07;9.23;;;10.40;99.90;;;;;;5058678;28;20050;-70
2022/06/03 03:51:00;;;;;;;15.45;9.23;;;10.40;99.90;;;;;;5062482;28;20060;-70
2022/06/03 03:53:29;;;;;;;11.45;8.32;;;10.40;99.90;;;;;;5067409;28;20091;-70
2022/06/03 03:56:13;;;;;;;12.00;8.80;;;10.50;99.90;;;;;;5068968;28;20063;-70
2022/06/03 03:59:06;;;;;;;15.15;9.13;;;10.70;99.90;;;;;;5067688;28;20040;-69
2022/06/03 04:01:51;;;;;;;14.73;10.13;;;10.60;99.90;;;;;;5068834;28;20057;-70
2022/06/03 04:04:25;;;;;;;11.75;9.88;;;10.60;99.90;;;;;;5068777;28;20667;-70
2022/06/03 04:07:12;;;;;;;10.95;9.85;;;10.80;99.90;;;;;;5068899;28;20128;-70
2022/06/03 04:09:56;;;;;;;12.90;9.63;;;10.60;99.90;;;;;;5053262;28;20341;-70
2022/06/03 04:12:25;;;;;;;15.13;10.20;;;10.60;99.90;;;;;;5068518;28;20068;-69
2022/06/03 04:15:28;;;;;;;13.45;9.27;;;10.80;99.90;;;;;;5067798;28;20032;-70
2022/06/03 04:18:20;;;;;;;12.93;8.98;;;10.70;99.90;;;;;;5069016;28;20041;-70
2022/06/03 04:20:45;;;;;;;12.43;9.93;;;10.70;99.90;;;;;;5068595;28;20106;-69
2022/06/03 04:23:49;;;;;;;14.15;9.52;;;11.10;99.90;;;;;;5067620;28;20052;-70
2022/06/03 04:26:46;;;;;;;14.32;10.38;;;10.70;99.90;;;;;;5057532;28;20048;-70
2022/06/03 04:29:36;;;;;;;14.10;10.60;;;10.70;99.90;;;;;;5048896;28;20052;-70
2022/06/03 04:32:04;;;;;;;13.82;10.35;;;10.70;99.90;;;;;;5068555;28;20044;-69
2022/06/03 04:34:52;;;;;;;16.42;10.82;;;10.70;99.90;;;;;;5068205;28;20040;-70
2022/06/03 04:37:41;;;;;;;12.82;11.10;;;10.80;99.90;;;;;;5049466;28;20045;-70
2022/06/03 04:40:12;;;;;;;12.77;10.77;;;10.80;99.90;;;;;;5067027;28;20382;-69
2022/06/03 04:42:56;;;;;;;14.00;10.50;;;10.90;99.90;;;;;;5067684;28;20097;-69
2022/06/03 04:45:28;;;;;;;15.32;10.27;;;10.80;99.90;;;;;;5068631;28;20045;-70
2022/06/03 04:47:53;;;;;;;13.15;9.55;;;10.90;99.90;;;;;;5070692;28;20044;-70
2022/06/03 04:51:00;;;;;;;12.18;9.85;;;11.80;99.90;;;;;;5067243;28;20037;-69
2022/06/03 04:53:47;;;;;;;13.38;9.60;;;11.00;99.90;;;;;;5065983;28;20080;-70
2022/06/03 04:56:28;;;;;;;13.77;9.52;;;11.00;99.90;;;;;;5057927;28;20049;-69
2022/06/03 04:59:41;;;;;;;14.05;9.52;;;11.00;99.90;;;;;;5046897;28;20056;-70
2022/06/03 05:02:28;;;;;;;12.73;9.35;;;11.00;99.90;;;;;;5056703;28;20135;-70
2022/06/03 05:05:18;;;;;;;13.30;9.63;;;11.10;99.90;;;;;;5067027;28;20045;-70
2022/06/03 05:08:18;;;;;;;12.85;9.13;;;11.10;99.90;;;;;;5068431;28;20082;-69
2022/06/03 05:11:07;;;;;;;10.88;7.97;;;11.20;99.90;;;;;;5070239;28;20152;-69
2022/06/03 05:13:44;;;;;;;13.95;8.07;;;11.80;99.90;;;;;;5064188;28;20409;-70
2022/06/03 05:16:33;;;;;;;10.13;7.50;;;11.30;99.90;;;;;;5064849;28;20401;-70
2022/06/03 05:18:58;;;;;;;8.77;7.05;;;11.40;99.90;;;;;;5065444;28;20051;-70
2022/06/03 05:21:51;;;;;;;14.07;7.60;;;11.50;99.90;;;;;;5067610;28;20545;-70
2022/06/03 05:24:50;;;;;;;13.43;7.50;;;11.50;99.90;;;;;;5068055;28;20053;-70
2022/06/03 05:27:31;;;;;;;14.27;7.32;;;11.50;99.90;;;;;;5067380;28;20327;-70
2022/06/03 05:30:20;;;;;;;9.88;6.75;;;11.50;99.90;;;;;;5066023;28;20090;-70
2022/06/03 05:33:26;;;;;;;9.50;6.65;;;11.70;99.90;;;;;;5066510;28;20512;-70
2022/06/03 05:36:10;;;;;;;13.15;7.05;;;11.70;99.90;;;;;;5065735;28;20095;-69
2022/06/03 05:38:41;;;;;;;9.98;6.80;;;11.70;99.90;;;;;;5067258;28;20050;-70
2022/06/03 05:44:49;;;;;;;9.45;6.30;;;11.80;99.90;;;;;;5065250;28;20063;-69
2022/06/03 05:47:26;;;;;;;9.10;6.15;;;11.90;99.90;;;;;;5065094;28;20032;-70
2022/06/03 05:49:58;;;;;;;10.57;5.85;;;12.00;99.90;;;;;;5067062;28;20121;-70
2022/06/03 05:52:50;;;;;;;9.20;6.10;;;12.00;99.90;;;;;;5067171;28;20041;-70
2022/06/03 05:55:34;;;;;;;7.85;5.32;;;12.10;99.90;;;;;;5066318;28;20067;-72
2022/06/03 05:58:05;;;;;;;8.32;5.40;;;12.20;99.90;;;;;;5048146;28;20409;-70
2022/06/03 06:01:08;;;;;;;10.90;5.13;;;12.30;99.90;;;;;;5059882;28;20083;-72
2022/06/03 06:04:10;;;;;;;8.52;5.03;;;12.30;99.90;;;;;;5065436;28;20080;-70
2022/06/03 06:06:52;;;;;;;10.68;4.97;;;12.40;99.90;;;;;;5065796;28;20537;-70
2022/06/03 06:09:36;;;;;;;9.15;5.45;;;12.50;99.90;;;;;;5062067;28;20380;-70
2022/06/03 06:12:24;;;;;;;11.52;5.10;;;12.50;99.90;;;;;;5067225;28;20607;-71
2022/06/03 06:14:57;;;;;;;8.85;4.70;;;12.60;99.90;;;;;;5045103;28;20060;-71
2022/06/03 06:17:41;;;;;;;7.45;4.57;;;13.00;99.90;;;;;;5047080;28;20053;-71
2022/06/03 06:20:35;;;;;;;8.63;4.80;;;12.70;99.90;;;;;;5045101;28;20128;-70
2022/06/03 06:23:13;;;;;;;6.63;4.15;;;12.80;99.90;;;;;;5047024;28;20128;-72
2022/06/03 06:25:57;;;;;;;6.65;4.55;;;12.90;99.90;;;;;;5049567;28;20076;-71
2022/06/03 06:28:41;;;;;;;5.40;4.30;;;13.00;99.90;;;;;;5059127;28;20044;-70
2022/06/03 06:31:19;;;;;;;8.57;3.90;;;13.10;99.90;;;;;;5069356;28;20040;-70
2022/06/03 06:34:09;;;;;;;8.82;4.20;;;13.10;99.90;;;;;;5069137;28;20037;-70
2022/06/03 06:37:06;;;;;;;6.13;3.65;;;13.20;99.90;;;;;;5070679;28;20051;-73
2022/06/03 06:39:55;;;;;;;7.93;3.60;;;13.30;99.90;;;;;;5073109;28;20091;-71
2022/06/03 06:42:56;;;;;;;8.40;3.63;;;13.40;99.90;;;;;;5070329;28;20584;-70
2022/06/03 06:46:08;;;;;;;5.35;3.15;;;13.50;99.90;;;;;;5080529;28;20045;-70
2022/06/03 06:48:43;;;;;;;5.43;3.17;;;13.60;99.90;;;;;;5046102;28;20052;-70
2022/06/03 06:51:28;;;;;;;5.22;3.40;;;13.70;99.90;;;;;;5048558;28;20056;-70
2022/06/03 06:54:05;;;;;;;5.75;3.10;;;13.80;99.90;;;;;;5049068;28;20049;-70
2022/06/03 06:56:47;;;;;;;6.65;3.13;;;13.90;99.90;;;;;;5066591;28;20049;-70
2022/06/03 06:59:28;;;;;;;5.60;2.83;;;14.00;99.90;;;;;;5069568;28;20405;-70
2022/06/03 07:02:18;;;;;;;5.13;2.95;;;14.10;99.90;;;;;;5068112;28;20057;-70
2022/06/03 07:05:07;;;;;;;4.32;2.50;;;14.50;99.90;;;;;;5068754;28;20558;-70
2022/06/03 07:07:55;;;;;;;3.60;2.05;;;14.20;99.90;;;;;;5065616;28;20048;-70
2022/06/03 07:10:24;;;;;;;4.95;2.30;;;14.30;99.90;;;;;;5069779;28;20106;-71
2022/06/03 07:13:29;;;;;;;3.92;2.28;;;14.60;99.90;;;;;;5069351;28;20051;-70
2022/06/03 07:16:07;;;;;;;2.67;1.80;;;14.60;99.90;;;;;;5070353;28;20044;-72
2022/06/03 07:21:57;;;;;;;4.35;2.28;;;14.70;99.90;;;;;;5069573;28;20182;-72
2022/06/03 07:24:37;;;;;;;7.20;2.58;;;14.80;99.90;;;;;;5067364;28;20040;-72
2022/06/03 07:27:12;;;;;;;3.40;2.08;;;14.90;99.90;;;;;;5068471;28;20040;-72
2022/06/03 07:29:45;;;;;;;6.10;2.05;;;15.00;99.90;;;;;;5067707;28;20052;-71
2022/06/03 07:32:22;;;;;;;6.40;2.20;;;15.20;99.90;;;;;;5067836;28;20052;-73
2022/06/03 07:34:56;;;;;;;5.22;1.90;;;15.10;99.90;;;;;;5067376;28;20115;-71
2022/06/03 07:37:39;;;;;;;4.25;1.90;;;15.20;99.90;;;;;;5069038;28;20056;-71
2022/06/03 07:40:30;;;;;;;4.32;2.10;;;15.30;99.90;;;;;;5069447;28;20045;-72
2022/06/03 07:43:16;;;;;;;5.55;2.20;;;15.40;99.90;;;;;;5060486;28;20056;-71
2022/06/03 07:45:54;;;;;;;5.13;2.00;;;15.60;99.90;;;;;;5068177;28;20040;-71
2022/06/03 07:48:22;;;;;;;2.65;1.63;;;15.70;99.90;;;;;;5068418;28;20091;-70
2022/06/03 07:51:04;;;;;;;6.18;2.08;;;15.90;99.90;;;;;;5068336;28;20080;-71
2022/06/03 07:53:45;;;;;;;4.32;1.80;;;16.00;99.90;;;;;;5065896;28;20059;-69
2022/06/03 07:56:18;;;;;;;5.68;1.77;;;16.10;99.90;;;;;;5061745;28;20048;-70
2022/06/03 07:58:45;;;;;;;5.57;1.90;;;16.10;99.90;;;;;;5061878;28;20051;-70
2022/06/03 08:01:22;;;;;;;5.07;2.17;;;16.20;99.90;;;;;;5068011;28;20056;-70
2022/06/03 08:03:47;;;;;;;5.70;1.80;;;16.30;99.90;;;;;;5066243;28;20468;-72
2022/06/03 08:06:13;;;;;;;5.75;1.90;;;16.30;99.90;;;;;;5067774;28;20040;-72
2022/06/03 08:11:31;;;;;;;3.13;1.67;;;16.40;99.90;;;;;;5067823;28;20382;-70
2022/06/03 08:13:59;;;;;;;4.15;1.80;;;16.50;99.90;;;;;;5066126;28;20374;-70
2022/06/03 08:16:38;;;;;;;2.40;1.55;;;16.50;99.90;;;;;;5067808;28;20498;-70
2022/06/03 08:19:12;;;;;;;5.43;1.73;;;16.60;99.90;;;;;;5067844;28;20033;-71
2022/06/03 08:21:42;;;;;;;5.40;1.92;;;16.70;99.90;;;;;;5067787;28;20090;-71
2022/06/03 08:24:14;;;;;;;4.30;1.67;;;16.80;99.90;;;;;;5066742;28;20497;-71
2022/06/03 08:26:42;;;;;;;3.97;1.95;;;16.90;99.90;;;;;;5067521;28;20127;-71
2022/06/03 08:29:14;;;;;;;3.38;1.70;;;17.00;99.90;;;;;;5067194;28;20093;-70
2022/06/03 08:31:41;;;;;;;3.25;1.65;;;17.10;99.90;;;;;;5068050;28;20494;-70
2022/06/03 08:34:17;;;;;;;4.80;1.83;;;17.20;99.90;;;;;;5067495;28;20041;-70
2022/06/03 08:36:43;;;;;;;4.35;1.80;;;17.30;99.90;;;;;;5067893;28;20439;-70
2022/06/03 08:39:16;;;;;;;3.83;1.83;;;17.40;99.90;;;;;;5062421;28;20052;-71
2022/06/03 08:42:03;;;;;;;3.67;2.35;;;17.50;99.90;;;;;;5066365;28;20055;-70
2022/06/03 08:44:41;;;;;;;3.97;1.90;;;17.50;99.90;;;;;;5058107;28;20133;-70
2022/06/03 08:47:26;;;;;;;5.05;1.75;;;17.60;99.90;;;;;;5048649;28;20040;-69
2022/06/03 08:50:06;;;;;;;3.85;1.88;;;17.70;99.90;;;;;;5064265;28;20201;-70
2022/06/03 08:53:14;;;;;;;2.80;1.70;;;17.80;99.90;;;;;;5065788;28;20044;-70
2022/06/03 08:55:43;;;;;;;5.28;2.22;;;18.00;99.90;;;;;;5065766;28;20150;-70
2022/06/03 08:58:24;;;;;;;3.08;1.80;;;18.10;99.90;;;;;;5067202;28;20139;-70
2022/06/03 09:01:16;;;;;;;3.53;1.90;;;18.20;99.90;;;;;;5067827;28;20235;-69
2022/06/03 09:04:03;;;;;;;3.65;1.70;;;18.30;99.90;;;;;;5068118;28;20074;-69
2022/06/03 09:06:41;;;;;;;5.63;2.00;;;18.40;99.90;;;;;;5065376;28;20052;-70
2022/06/03 09:09:29;;;;;;;4.03;1.77;;;18.50;99.90;;;;;;5064653;28;20052;-71
2022/06/03 09:12:10;;;;;;;4.50;1.60;;;18.60;99.90;;;;;;5067166;28;20120;-70
2022/06/03 09:14:39;;;;;;;4.30;1.70;;;18.70;99.90;;;;;;5066451;28;20079;-70
2022/06/03 09:17:37;;;;;;;2.92;1.70;;;18.80;99.90;;;;;;5066326;28;20181;-70
2022/06/03 09:20:24;;;;;;;3.90;1.80;;;18.90;99.90;;;;;;5067418;28;20052;-70
2022/06/03 09:22:57;;;;;;;3.22;1.80;;;19.00;99.90;;;;;;5066010;28;20052;-70
2022/06/03 09:25:23;;;;;;;3.72;1.85;;;19.20;99.90;;;;;;5066819;28;20063;-70
2022/06/03 09:27:51;;;;;;;3.58;1.90;;;19.30;99.90;;;;;;5066348;28;20453;-69
2022/06/03 09:30:31;;;;;;;4.32;1.90;;;19.40;99.90;;;;;;5066303;28;20119;-70
2022/06/03 09:32:59;;;;;;;5.40;1.85;;;19.50;99.90;;;;;;5066680;28;20048;-70
2022/06/03 09:35:27;;;;;;;7.50;1.88;;;19.60;99.90;;;;;;5041383;28;20048;-70
2022/06/03 09:37:58;;;;;;;5.30;2.03;;;19.70;99.90;;;;;;5059770;28;20048;-70
2022/06/03 09:40:41;;;;;;;4.45;1.90;;;19.80;99.90;;;;;;5046565;28;20109;-70
2022/06/03 09:43:17;;;;;;;3.55;1.88;;;19.90;99.90;;;;;;5045728;28;20132;-71
2022/06/03 09:45:46;;;;;;;3.17;1.90;;;20.00;99.90;;;;;;5046767;28;20121;-71
2022/06/03 09:48:31;;;;;;;5.35;2.10;;;20.00;99.90;;;;;;5046714;28;20053;-70
2022/06/03 09:51:10;;;;;;;4.50;1.90;;;20.20;99.90;;;;;;5047050;28;20053;-71
2022/06/03 09:53:41;;;;;;;4.05;1.90;;;20.30;99.90;;;;;;5049046;28;20128;-70
2022/06/03 09:56:16;;;;;;;4.85;2.00;;;20.40;99.90;;;;;;5063412;28;20049;-71
2022/06/03 09:58:42;;;;;;;5.85;1.80;;;20.50;99.90;;;;;;5043211;28;20397;-71
2022/06/03 10:01:09;;;;;;;3.38;1.92;;;20.50;99.90;;;;;;5045007;28;20379;-71
2022/06/03 10:03:35;;;;;;;3.63;2.10;;;20.60;99.90;;;;;;5046220;28;20458;-71
2022/06/03 10:06:01;;;;;;;3.50;1.80;;;21.20;99.90;;;;;;5048090;28;20044;-71
2022/06/03 10:12:48;;;;;;;6.50;2.10;;;20.90;99.90;;;;;;5049403;28;20074;-70
2022/06/03 10:14:03;;;;;;;4.45;2.15;;;21.10;99.90;;;;;;5049593;28;20440;-70
2022/06/03 10:16:28;;;;;;;3.42;2.00;;;21.20;99.40;;;;;;5051480;28;20416;-70
2022/06/03 10:18:56;;;;;;;4.32;1.95;;;21.20;99.20;;;;;;5050092;28;20318;-71
2022/06/03 10:21:21;;;;;;;4.72;2.10;;;21.20;99.30;;;;;;5051177;28;20140;-71
2022/06/03 10:23:55;;;;;;;11.07;2.45;;;21.30;99.20;;;;;;5049971;28;20525;-70
2022/06/03 10:26:22;;;;;;;6.53;2.17;;;21.50;98.70;;;;;;5061999;28;20072;-70
2022/06/03 10:28:51;;;;;;;5.50;2.22;;;21.60;98.70;;;;;;5068935;28;20126;-70
2022/06/03 10:31:19;;;;;;;4.50;2.22;;;21.80;98.20;;;;;;5070686;28;20047;-70
2022/06/03 10:33:55;;;;;;;4.03;2.22;;;21.80;97.90;;;;;;5067973;28;20044;-71
2022/06/03 10:36:26;;;;;;;3.78;2.17;;;22.00;97.80;;;;;;5069172;28;20395;-71
2022/06/03 10:38:52;;;;;;;4.50;2.17;;;22.20;98.00;;;;;;5069988;28;20048;-70
2022/06/03 10:41:20;;;;;;;5.18;2.80;;;22.30;97.10;;;;;;5070210;28;20045;-71
2022/06/03 10:43:48;;;;;;;3.78;2.10;;;22.40;97.10;;;;;;5069106;28;20128;-70
2022/06/03 10:46:19;;;;;;;5.30;2.42;;;22.60;97.10;;;;;;5070833;28;20029;-73
2022/06/03 10:48:46;;;;;;;3.25;2.20;;;22.90;96.60;;;;;;5063237;28;20048;-73
2022/06/03 10:51:14;;;;;;;5.60;2.15;;;23.20;96.40;;;;;;5065836;28;20033;-73
2022/06/03 11:02:02;;;;;;;5.32;2.30;;;29.50;88.60;;;;;;5064925;28;20123;-74
2022/06/03 11:04:33;;;;;;;4.63;2.20;;;32.30;81.10;;;;;;5064224;28;20119;-75
2022/06/03 11:07:02;;;;;;;5.28;2.25;;;33.90;71.50;;;;;;5065389;28;20044;-75
2022/06/03 11:09:29;;;;;;;4.78;2.10;;;35.30;66.20;;;;;;5062458;28;20137;-74
2022/06/03 11:12:04;;;;;;;2.97;1.98;;;36.60;61.70;;;;;;5065090;28;20040;-75
2022/06/03 11:14:39;;;;;;;3.88;2.03;;;36.90;58.40;;;;;;5071338;28;20089;-75
2022/06/03 11:17:17;;;;;;;3.92;2.08;;;36.10;56.50;;;;;;5061693;28;20044;-74
2022/06/03 11:19:49;;;;;;;3.50;2.00;;;36.10;57.10;;;;;;5064886;28;20099;-75
2022/06/03 11:22:24;;;;;;;3.22;1.80;;;35.60;56.30;;;;;;5063465;28;20046;-74
2022/06/03 11:25:07;;;;;;;3.28;1.88;;;35.10;55.90;;;;;;5072647;28;20056;-74
2022/06/03 11:27:43;;;;;;;4.75;1.90;;;34.80;55.80;;;;;;5067078;28;20101;-72
2022/06/03 11:30:34;;;;;;;4.60;2.00;;;34.60;56.30;;;;;;5068345;28;20116;-70
2022/06/03 11:33:30;;;;;;;3.20;1.63;;;34.10;56.40;;;;;;5067591;28;20106;-71
2022/06/03 11:36:10;;;;;;;3.65;1.75;;;33.80;56.10;;;;;;5066892;28;20041;-70
2022/06/03 11:38:54;;;;;;;3.22;1.77;;;33.30;56.30;;;;;;5067559;28;20489;-70
2022/06/03 11:41:22;;;;;;;3.40;1.60;;;32.40;56.40;;;;;;5067604;28;20036;-69
2022/06/03 11:43:58;;;;;;;3.75;1.70;;;32.00;57.20;;;;;;5067686;28;20064;-70
2022/06/03 11:46:34;;;;;;;3.95;1.75;;;33.20;57.10;;;;;;5068272;28;20540;-70
2022/06/03 11:49:00;;;;;;;3.63;1.65;;;34.60;56.40;;;;;;5084629;28;20051;-71
2022/06/03 11:51:26;;;;;;;3.13;1.60;;;36.20;56.50;;;;;;5067292;28;20040;-71
2022/06/03 11:53:52;;;;;;;3.22;1.60;;;37.60;54.90;;;;;;5068393;28;20044;-71
2022/06/03 11:56:25;;;;;;;4.57;1.58;;;39.00;53.20;;;;;;5067792;28;20048;-71
2022/06/03 11:58:57;;;;;;;4.07;1.60;;;40.10;52.00;;;;;;5067111;28;20123;-72
2022/06/03 12:01:34;;;;;;;3.67;1.52;;;41.10;50.90;;;;;;5067771;28;20436;-71
2022/06/03 12:04:21;;;;;;;5.05;1.70;;;41.70;49.30;;;;;;5055914;28;20174;-70
2022/06/03 12:07:06;;;;;;;3.85;1.65;;;41.70;49.20;;;;;;5065445;28;20587;-70
2022/06/03 12:09:50;;;;;;;5.10;1.83;;;41.20;47.80;;;;;;5049218;28;20037;-71
2022/06/03 12:15:31;;;;;;;5.07;1.85;;;39.50;47.80;;;;;;5050371;28;20458;-71
2022/06/03 12:18:42;;;;;;;4.22;1.65;;;39.90;48.00;;;;;;5072102;28;20053;-71
2022/06/03 12:21:14;;;;;;;4.95;2.03;;;38.60;47.00;;;;;;5042057;28;20098;-71
2022/06/03 12:23:43;;;;;;;4.53;1.98;;;36.70;48.40;;;;;;5047969;28;20102;-71
2022/06/03 12:26:29;;;;;;;8.90;2.40;;;36.70;49.00;;;;;;5047658;28;20049;-70
2022/06/03 12:29:08;;;;;;;12.85;2.55;;;36.70;50.20;;;;;;5047267;28;20140;-70
2022/06/03 12:31:42;;;;;;;11.95;3.05;;;35.40;49.80;;;;;;5062234;28;20051;-71
2022/06/03 12:34:22;;;;;;;7.80;1.88;;;34.00;50.50;;;;;;5066276;28;20094;-70
2022/06/03 12:36:47;;;;;;;10.85;2.28;;;32.40;51.10;;;;;;5048114;28;20393;-70
2022/06/03 12:39:25;;;;;;;5.43;1.90;;;31.10;52.20;;;;;;5067793;28;20074;-70
2022/06/03 12:41:51;;;;;;;4.13;1.92;;;30.10;53.40;;;;;;5066519;28;20326;-70
2022/06/03 12:44:36;;;;;;;3.70;2.00;;;29.40;54.80;;;;;;5066499;28;20037;-71
2022/06/03 12:47:23;;;;;;;2.33;1.60;;;28.60;55.30;;;;;;5066746;28;20049;-71
2022/06/03 12:49:51;;;;;;;3.67;1.58;;;28.00;56.40;;;;;;5067284;28;20071;-71
2022/06/03 12:52:40;;;;;;;3.95;1.65;;;27.70;57.40;;;;;;5067433;28;20123;-70
2022/06/03 12:55:16;;;;;;;4.95;1.70;;;27.40;58.00;;;;;;5065375;28;20044;-71
2022/06/03 12:57:50;;;;;;;4.57;1.70;;;27.10;58.50;;;;;;5067381;28;20510;-71
2022/06/03 13:00:28;;;;;;;5.53;1.83;;;26.90;58.90;;;;;;5067294;28;20405;-71
2022/06/03 13:03:31;;;;;;;2.80;1.60;;;26.80;59.70;;;;;;5066130;28;20052;-72
2022/06/03 13:05:58;;;;;;;5.25;1.83;;;26.70;59.80;;;;;;5044314;28;20053;-71
2022/06/03 13:08:27;;;;;;;6.00;1.95;;;26.70;59.90;;;;;;5062681;28;20516;-71
2022/06/03 13:11:03;;;;;;;3.42;1.80;;;26.60;60.40;;;;;;5067804;28;20087;-71
2022/06/03 13:13:34;;;;;;;4.75;1.90;;;26.60;60.80;;;;;;5065847;28;20158;-71
2022/06/03 13:16:00;;;;;;;4.97;1.70;;;26.50;61.10;;;;;;5067829;28;20048;-71
2022/06/03 13:18:34;;;;;;;3.72;1.60;;;26.50;61.00;;;;;;5066974;28;20392;-70
2022/06/03 13:21:02;;;;;;;3.90;1.70;;;26.40;61.30;;;;;;5067324;28;20334;-70
2022/06/03 13:23:34;;;;;;;3.03;1.60;;;26.40;61.90;;;;;;5063875;28;20546;-71
2022/06/03 13:26:21;;;;;;;4.57;1.70;;;26.20;62.10;;;;;;5045310;28;20044;-72
2022/06/03 13:28:55;;;;;;;4.32;1.67;;;26.10;62.10;;;;;;5066325;28;20084;-71
2022/06/03 13:31:40;;;;;;;3.92;1.52;;;25.90;62.70;;;;;;5058869;28;20511;-71
2022/06/03 13:34:12;;;;;;;6.20;1.60;;;25.80;62.70;;;;;;5068017;28;20493;-71
2022/06/03 13:36:46;;;;;;;4.82;1.65;;;25.70;62.70;;;;;;5068837;28;20074;-71
2022/06/03 13:39:34;;;;;;;2.65;1.60;;;25.50;62.40;;;;;;5069767;28;20072;-71
2022/06/03 13:45:03;;;;;;;2.92;1.55;;;25.10;63.30;;;;;;5054534;28;20053;-71
2022/06/03 13:47:34;;;;;;;5.90;1.60;;;25.10;63.20;;;;;;5054752;28;20327;-72
2022/06/03 13:50:17;;;;;;;2.60;1.42;;;24.90;63.10;;;;;;5070603;28;20067;-71
2022/06/03 13:52:45;;;;;;;3.58;1.40;;;24.80;63.80;;;;;;5070012;28;20040;-72
2022/06/03 13:55:11;;;;;;;4.03;1.50;;;24.80;63.20;;;;;;5071198;28;20081;-71
2022/06/03 13:57:40;;;;;;;3.80;1.60;;;24.60;63.30;;;;;;5053784;28;20422;-72
2022/06/03 14:00:18;;;;;;;4.75;1.45;;;24.40;64.20;;;;;;5068926;28;20099;-71
2022/06/03 14:02:47;;;;;;;3.97;1.50;;;24.40;64.50;;;;;;5069469;28;20059;-72
2022/06/03 14:05:26;;;;;;;2.60;1.27;;;24.30;64.40;;;;;;5067495;28;20133;-72
2022/06/03 14:08:01;;;;;;;4.43;1.52;;;24.30;64.20;;;;;;5069061;28;20063;-71
2022/06/03 14:10:33;;;;;;;;;;;24.20;64.10;;;;;;5066875;28;20414;-72
2022/06/03 14:13:03;;;;;;;3.67;1.45;;;24.10;64.30;;;;;;5067118;28;19924;-71
2022/06/03 14:16:02;;;;;;;5.00;1.40;;;23.90;64.70;;;;;;5069142;28;20044;-71
2022/06/03 14:18:50;;;;;;;6.35;1.50;;;24.10;64.40;;;;;;5069316;28;20500;-72
2022/06/03 14:21:27;;;;;;;4.53;1.50;;;24.00;64.00;;;;;;5068590;28;20041;-72
2022/06/03 14:23:56;;;;;;;4.07;1.35;;;24.00;64.10;;;;;;5065754;28;20037;-72
2022/06/03 14:26:32;;;;;;;4.00;1.30;;;23.90;64.00;;;;;;5069624;28;20123;-72